首页
METAR-TAF:

METAR-TAF

机场 :

納爾奇克, 俄罗斯

纬度: 43-30-46N, 经度: 043-38-12E, 海拔: 445米

当前天气观测

该预报发布于19分钟前的15:00 UTC
风速12节,风向西转西北
温度 22°C
湿度 57%
气压 1011 hPa
能见度10公里或以上
多云层高于2600英尺, 积雨云.

METAR: URMN 171500Z 29006MPS 9999 BKN026CB 22/13 Q1011 R24/010070 NOSIG RMK QFE722

时间: 18:19 (15:19 UTC)

预报

该预报发布于1小时和19分钟前的14:00 UTC
预报有效从17日的 15点(UTC)到 17日的 24点(UTC)
风速6节,风向西转西南
能见度10公里或以上
散云层高于3000英尺, 积雨云.
短暂存在
从 17日的 15点(UTC)到 17日的 18点(UTC)
风速14节,风向多变,有时为27节阵风
能見度: 3100
散云层高于1100英尺
多云层高于2000英尺, 积雨云.
雷暴, 小雨

TAF: URMN 171400Z 1715/1724 24003MPS 9999 SCT030CB TEMPO 1715/1718 VRB07G14MPS 3100 -TSRA SCT011 BKN020CB

超过4000个机场的气象观测和天气预报(METAR&TAF报告)。

可查询的气象台以黄色和红色小点在地图上表示。

将鼠标移到小点上方,可查看气象台名称。

然后点击查看天气观测和预报。

如需切换地图:点击带黑十字的绿色按钮放大地图;点击带横线的绿色按钮缩小地图;或者点击绿色箭头查看邻近地区的地图。


METAR-TAF: